createdAt,value
2023-01-31T00:01:23.268Z,2.05
2023-01-31T00:03:53.718Z,3.88
2023-01-31T00:06:23.237Z,3.75
2023-01-31T00:08:52.472Z,3.30
2023-01-31T00:11:21.477Z,1.80
2023-01-31T00:13:49.454Z,5.38
2023-01-31T00:16:17.828Z,3.92
2023-01-31T00:18:45.612Z,4.18
2023-01-31T00:21:14.399Z,2.88
2023-01-31T00:23:42.854Z,2.45
2023-01-31T00:26:13.235Z,2.20
2023-01-31T00:28:40.930Z,2.78
2023-01-31T00:31:08.726Z,2.00
2023-01-31T00:33:36.638Z,2.78
2023-01-31T00:36:05.587Z,3.78
2023-01-31T00:38:33.304Z,2.42
2023-01-31T00:41:00.980Z,2.20
2023-01-31T00:43:29.791Z,2.25
2023-01-31T00:45:57.042Z,2.08
2023-01-31T00:48:24.413Z,2.15
2023-01-31T00:50:51.604Z,2.55
2023-01-31T00:53:18.896Z,2.50
2023-01-31T00:55:46.019Z,2.45
2023-01-31T00:58:13.137Z,2.53
2023-01-31T01:00:41.585Z,3.58
2023-01-31T01:03:08.729Z,2.58
2023-01-31T01:05:36.573Z,2.17
2023-01-31T01:08:03.821Z,2.70
2023-01-31T01:10:30.972Z,2.08
2023-01-31T01:12:58.184Z,2.35
2023-01-31T01:15:25.296Z,3.08
2023-01-31T01:17:54.868Z,2.67
2023-01-31T01:20:22.009Z,3.42
2023-01-31T01:22:49.158Z,2.80
2023-01-31T01:25:16.244Z,4.28
2023-01-31T01:27:43.388Z,2.22
2023-01-31T01:30:11.722Z,2.88
2023-01-31T01:32:38.880Z,3.28
2023-01-31T01:35:08.287Z,3.45
2023-01-31T01:37:36.295Z,2.08
2023-01-31T01:40:04.395Z,2.65
2023-01-31T01:42:35.554Z,1.50
2023-01-31T01:45:11.456Z,1.98
2023-01-31T01:47:42.485Z,4.45
2023-01-31T01:50:16.369Z,1.95
2023-01-31T01:52:48.555Z,2.33
2023-01-31T01:55:21.845Z,3.72
2023-01-31T01:57:55.258Z,3.08
2023-01-31T02:00:24.876Z,1.92
2023-01-31T02:03:13.145Z,2.63
2023-01-31T02:05:44.796Z,1.88
2023-01-31T02:08:12.540Z,3.03
2023-01-31T02:10:46.889Z,2.42
2023-01-31T02:13:15.117Z,2.35
2023-01-31T02:15:42.420Z,2.25
2023-01-31T02:18:10.249Z,3.13
2023-01-31T02:21:19.089Z,1.42
2023-01-31T02:24:20.251Z,1.75
2023-01-31T02:27:10.948Z,1.88
2023-01-31T02:30:10.238Z,2.80
2023-01-31T02:32:53.053Z,2.83
2023-01-31T02:35:33.105Z,3.03
2023-01-31T02:38:12.859Z,3.10
2023-01-31T02:40:54.821Z,3.00
2023-01-31T02:43:26.196Z,3.63
2023-01-31T02:46:01.957Z,2.03
2023-01-31T02:48:41.732Z,2.70
2023-01-31T02:51:14.412Z,2.53
2023-01-31T02:53:48.160Z,2.15
2023-01-31T02:56:21.351Z,2.13
2023-01-31T02:58:55.700Z,2.23
2023-01-31T03:01:27.280Z,2.22
2023-01-31T03:03:57.854Z,1.88
2023-01-31T03:06:57.599Z,2.58
2023-01-31T03:09:39.892Z,3.22
2023-01-31T03:12:32.945Z,3.90
2023-01-31T03:15:15.127Z,2.22
2023-01-31T03:17:56.743Z,3.58
2023-01-31T03:20:32.732Z,2.65
2023-01-31T03:23:04.495Z,2.08
2023-01-31T03:25:35.563Z,2.70
2023-01-31T03:28:08.387Z,3.70
2023-01-31T03:30:39.759Z,2.65
2023-01-31T03:33:14.294Z,2.60
2023-01-31T03:35:47.291Z,3.20
2023-01-31T03:38:18.993Z,1.90
2023-01-31T03:40:50.704Z,1.65
2023-01-31T03:43:25.067Z,1.92
2023-01-31T03:45:57.722Z,1.75
2023-01-31T03:48:30.033Z,2.42
2023-01-31T03:51:02.025Z,2.30
2023-01-31T03:53:34.439Z,4.40
2023-01-31T03:56:04.774Z,2.40
2023-01-31T03:58:35.972Z,2.45
2023-01-31T04:01:06.757Z,2.80
2023-01-31T04:03:39.419Z,2.50
2023-01-31T04:06:09.317Z,3.10
2023-01-31T04:08:37.066Z,2.30
2023-01-31T04:11:06.157Z,2.08
2023-01-31T04:13:33.299Z,4.00
2023-01-31T04:16:00.580Z,2.65
2023-01-31T04:18:27.779Z,1.98
2023-01-31T04:20:54.995Z,3.45
2023-01-31T04:23:23.489Z,2.45
2023-01-31T04:25:52.531Z,2.50
2023-01-31T04:28:19.622Z,2.88
2023-01-31T04:30:46.729Z,2.72
2023-01-31T04:33:13.828Z,2.35
2023-01-31T04:35:40.930Z,2.13
2023-01-31T04:38:08.050Z,2.05
2023-01-31T04:40:36.629Z,2.10
2023-01-31T04:43:04.105Z,1.65
2023-01-31T04:45:31.688Z,2.50
2023-01-31T04:47:58.924Z,2.65
2023-01-31T04:50:26.037Z,1.92
2023-01-31T04:52:53.155Z,3.53
2023-01-31T04:55:20.614Z,2.83
2023-01-31T04:57:49.325Z,2.05
2023-01-31T05:00:17.441Z,2.35
2023-01-31T05:02:44.959Z,2.63
2023-01-31T05:05:12.109Z,2.05
2023-01-31T05:07:40.655Z,1.95
2023-01-31T05:10:09.264Z,4.05
2023-01-31T05:12:36.365Z,2.25
2023-01-31T05:15:06.135Z,2.20
2023-01-31T05:17:33.348Z,3.83
2023-01-31T05:20:00.455Z,2.17
2023-01-31T05:22:27.562Z,2.35
2023-01-31T05:24:56.255Z,2.25
2023-01-31T05:27:25.379Z,4.65
2023-01-31T05:29:52.512Z,3.25
2023-01-31T05:32:21.055Z,2.00
2023-01-31T05:34:48.176Z,3.13
2023-01-31T05:37:15.256Z,2.03
2023-01-31T05:39:42.374Z,3.53
2023-01-31T05:42:09.487Z,2.53
2023-01-31T05:44:36.862Z,2.45
2023-01-31T05:47:04.117Z,2.75
2023-01-31T05:49:32.777Z,2.10
2023-01-31T05:51:59.916Z,2.53
2023-01-31T05:54:27.061Z,6.50
2023-01-31T05:56:54.158Z,3.30
2023-01-31T05:59:21.269Z,2.25
2023-01-31T06:01:48.533Z,2.28
2023-01-31T06:04:15.813Z,1.67
2023-01-31T06:06:44.255Z,3.75
2023-01-31T06:09:11.395Z,1.85
2023-01-31T06:11:38.547Z,3.13
2023-01-31T06:14:05.659Z,1.73
2023-01-31T06:16:33.208Z,2.60
2023-01-31T06:19:00.388Z,2.38
2023-01-31T06:21:27.520Z,2.78
2023-01-31T06:23:55.997Z,2.38
2023-01-31T06:26:23.384Z,2.42
2023-01-31T06:28:50.601Z,2.78
2023-01-31T06:31:18.830Z,2.75
2023-01-31T06:33:47.927Z,2.53
2023-01-31T06:36:18.576Z,2.60
2023-01-31T06:38:49.662Z,2.22
2023-01-31T06:41:18.274Z,3.63
2023-01-31T06:43:45.381Z,9.65
2023-01-31T06:46:12.533Z,3.20
2023-01-31T06:48:39.708Z,2.65
2023-01-31T06:51:06.795Z,3.08
2023-01-31T06:53:33.930Z,3.85
2023-01-31T06:56:01.060Z,4.00
2023-01-31T06:58:29.499Z,4.43
2023-01-31T07:00:56.933Z,5.38
2023-01-31T07:03:24.121Z,3.97
2023-01-31T07:05:51.252Z,9.85
2023-01-31T07:08:18.523Z,4.75
2023-01-31T07:10:47.766Z,5.25
2023-01-31T07:13:15.051Z,4.63
2023-01-31T07:15:43.623Z,3.35
2023-01-31T07:18:10.743Z,5.00
2023-01-31T07:20:39.390Z,4.47
2023-01-31T07:23:06.549Z,18.95
2023-01-31T07:25:34.092Z,6.13
2023-01-31T07:28:01.641Z,9.68
2023-01-31T07:30:28.957Z,5.45
2023-01-31T07:32:57.582Z,8.23
2023-01-31T07:35:24.796Z,4.80
2023-01-31T07:37:52.530Z,4.55
2023-01-31T07:40:20.012Z,8.82
2023-01-31T07:42:47.135Z,5.60
2023-01-31T07:45:23.965Z,5.65
2023-01-31T07:47:51.333Z,8.52
2023-01-31T07:50:20.043Z,7.47
2023-01-31T07:52:47.171Z,7.82
2023-01-31T07:55:14.292Z,4.80
2023-01-31T07:57:41.396Z,5.45
2023-01-31T08:00:09.930Z,6.43
2023-01-31T08:02:37.019Z,3.63
2023-01-31T08:05:04.797Z,5.70
2023-01-31T08:07:34.248Z,4.55
2023-01-31T08:10:01.373Z,3.53
2023-01-31T08:12:28.785Z,6.07
2023-01-31T08:14:56.399Z,6.68
2023-01-31T08:17:23.549Z,5.85
2023-01-31T08:19:50.771Z,6.07
2023-01-31T08:22:17.879Z,4.72
2023-01-31T08:24:46.784Z,4.82
2023-01-31T08:27:14.083Z,4.50
2023-01-31T08:29:41.206Z,4.75
2023-01-31T08:32:08.350Z,7.70
2023-01-31T08:34:35.516Z,4.30
2023-01-31T08:37:02.620Z,6.22
2023-01-31T08:39:30.320Z,4.90
2023-01-31T08:41:58.898Z,8.02
2023-01-31T08:44:25.996Z,8.52
2023-01-31T08:46:53.132Z,4.60
2023-01-31T08:49:20.257Z,7.43
2023-01-31T08:51:47.405Z,8.07
2023-01-31T08:54:14.722Z,14.70
2023-01-31T08:56:41.842Z,6.22
2023-01-31T08:59:11.597Z,9.02
2023-01-31T09:01:38.952Z,10.95
2023-01-31T09:04:06.127Z,11.38
2023-01-31T09:06:33.516Z,11.05
2023-01-31T09:09:00.664Z,7.88
2023-01-31T09:11:29.107Z,8.70
2023-01-31T09:13:56.289Z,6.20
2023-01-31T09:16:24.798Z,5.28
2023-01-31T09:18:53.438Z,6.25
2023-01-31T09:21:21.803Z,5.55
2023-01-31T09:23:54.023Z,5.85
2023-01-31T09:26:21.349Z,5.25
2023-01-31T09:28:48.461Z,5.80
2023-01-31T09:31:17.992Z,6.05
2023-01-31T09:33:47.057Z,4.53
2023-01-31T09:36:16.223Z,3.42
2023-01-31T09:38:43.595Z,5.43
2023-01-31T09:41:21.797Z,4.57
2023-01-31T09:43:54.288Z,7.97
2023-01-31T09:46:26.735Z,8.65
2023-01-31T09:48:57.316Z,4.15
2023-01-31T09:51:24.545Z,12.32
2023-01-31T09:53:52.109Z,5.65
2023-01-31T09:56:29.574Z,4.90
2023-01-31T09:59:01.429Z,3.67
2023-01-31T10:01:36.321Z,5.25
2023-01-31T10:04:17.897Z,5.53
2023-01-31T10:06:53.631Z,4.50
2023-01-31T10:09:26.913Z,5.00
2023-01-31T10:11:59.115Z,8.93
2023-01-31T10:14:33.019Z,6.22
2023-01-31T10:17:10.265Z,6.18
2023-01-31T10:19:47.514Z,4.60
2023-01-31T10:22:20.846Z,7.03
2023-01-31T10:24:51.948Z,8.97
2023-01-31T10:27:38.714Z,5.68
2023-01-31T10:30:14.672Z,9.13
2023-01-31T10:32:45.565Z,8.60
2023-01-31T10:35:18.156Z,6.32
2023-01-31T10:37:48.836Z,11.00
2023-01-31T10:40:19.348Z,11.52
2023-01-31T10:42:51.054Z,7.53
2023-01-31T10:45:21.173Z,6.85
2023-01-31T10:47:51.360Z,157.38
2023-01-31T10:50:28.188Z,272.08
2023-01-31T10:53:16.669Z,383.17
2023-01-31T10:55:59.035Z,495.85
2023-01-31T10:58:26.356Z,248.95
2023-01-31T11:00:53.683Z,169.18
2023-01-31T11:03:21.158Z,166.95
2023-01-31T11:05:51.775Z,156.07
2023-01-31T11:08:29.437Z,141.52
2023-01-31T11:10:58.050Z,149.07
2023-01-31T11:13:25.291Z,141.80
2023-01-31T11:15:54.497Z,140.80
2023-01-31T11:18:31.837Z,119.32
2023-01-31T11:21:02.141Z,97.93
2023-01-31T11:23:32.200Z,82.68
2023-01-31T11:25:59.795Z,75.90
2023-01-31T11:28:35.577Z,68.80
2023-01-31T11:31:05.417Z,68.05
2023-01-31T11:33:43.827Z,66.65
2023-01-31T11:36:15.194Z,59.90
2023-01-31T11:38:42.608Z,54.17
2023-01-31T11:41:31.977Z,63.75
2023-01-31T11:44:17.802Z,49.92
2023-01-31T11:46:50.923Z,53.03
2023-01-31T11:49:37.558Z,50.33
2023-01-31T11:52:15.705Z,47.90
2023-01-31T11:54:48.040Z,52.35
2023-01-31T11:57:16.933Z,48.15
2023-01-31T11:59:44.271Z,54.33
2023-01-31T12:02:27.569Z,54.58
2023-01-31T12:04:55.061Z,46.35
2023-01-31T12:07:25.854Z,49.70
2023-01-31T12:09:53.013Z,42.17
2023-01-31T12:12:27.905Z,41.72
2023-01-31T12:14:59.414Z,55.17
2023-01-31T12:17:29.745Z,40.67
2023-01-31T12:20:27.036Z,45.15
2023-01-31T12:23:07.138Z,36.65
2023-01-31T12:26:00.429Z,37.92
2023-01-31T12:28:37.630Z,38.08
2023-01-31T12:31:38.107Z,37.28
2023-01-31T12:34:22.140Z,39.20
2023-01-31T12:37:08.314Z,40.83
2023-01-31T12:39:50.282Z,38.58
2023-01-31T12:42:38.869Z,38.88
2023-01-31T12:45:25.926Z,35.25
2023-01-31T12:48:18.284Z,34.88
2023-01-31T12:50:50.163Z,37.17
2023-01-31T12:53:50.921Z,35.97
2023-01-31T12:56:36.145Z,36.25
2023-01-31T12:59:16.208Z,40.35
2023-01-31T13:01:52.137Z,30.95
2023-01-31T13:04:30.949Z,39.85
2023-01-31T13:07:03.027Z,35.05
2023-01-31T13:09:33.301Z,35.17
2023-01-31T13:12:08.367Z,35.50
2023-01-31T13:14:39.458Z,30.83
2023-01-31T13:17:11.573Z,28.90
2023-01-31T13:19:44.742Z,32.58
2023-01-31T13:22:17.354Z,36.70
2023-01-31T13:24:47.859Z,30.42
2023-01-31T13:27:21.643Z,31.42
2023-01-31T13:29:53.615Z,27.48
2023-01-31T13:32:27.560Z,28.85
2023-01-31T13:35:00.378Z,28.02
2023-01-31T13:37:29.768Z,26.20
2023-01-31T13:40:01.506Z,26.95
2023-01-31T13:42:30.300Z,28.10
2023-01-31T13:45:05.544Z,24.52
2023-01-31T13:47:41.254Z,23.50
2023-01-31T13:50:20.983Z,24.88
2023-01-31T13:52:52.725Z,26.55
2023-01-31T13:55:25.074Z,22.73
2023-01-31T13:57:57.284Z,25.52
2023-01-31T14:00:38.035Z,23.50
2023-01-31T14:03:08.839Z,20.88
2023-01-31T14:05:59.806Z,21.15
2023-01-31T14:08:57.744Z,21.00
2023-01-31T14:11:42.814Z,24.20
2023-01-31T14:14:29.587Z,19.73
2023-01-31T14:16:57.060Z,17.30
2023-01-31T14:19:52.030Z,43.28
2023-01-31T14:22:20.805Z,25.90
2023-01-31T14:25:06.813Z,22.70
2023-01-31T14:27:38.033Z,19.98
2023-01-31T14:30:23.878Z,20.13
2023-01-31T14:33:05.618Z,20.25
2023-01-31T14:36:04.543Z,21.70
2023-01-31T14:38:55.479Z,17.77
2023-01-31T14:41:35.419Z,19.10
2023-01-31T14:44:18.171Z,14.65
2023-01-31T14:47:08.417Z,17.95
2023-01-31T14:50:01.996Z,18.95
2023-01-31T14:52:46.039Z,16.02
2023-01-31T14:55:45.505Z,16.55
2023-01-31T14:58:18.357Z,14.90
2023-01-31T15:00:50.611Z,16.00
2023-01-31T15:03:22.052Z,17.95
2023-01-31T15:05:51.356Z,18.67
2023-01-31T15:08:38.176Z,16.80
2023-01-31T15:11:10.833Z,13.32
2023-01-31T15:13:47.472Z,14.93
2023-01-31T15:16:24.150Z,14.75
2023-01-31T15:18:59.549Z,17.48
2023-01-31T15:21:30.241Z,16.83
2023-01-31T15:23:59.348Z,14.98
2023-01-31T15:26:30.012Z,11.77
2023-01-31T15:28:57.319Z,13.18
2023-01-31T15:31:30.739Z,12.73
2023-01-31T15:34:05.038Z,14.68
2023-01-31T15:36:37.256Z,31.50
2023-01-31T15:39:18.538Z,15.43
2023-01-31T15:41:45.820Z,15.80
2023-01-31T15:44:18.021Z,14.43
2023-01-31T15:46:46.749Z,15.50
2023-01-31T15:49:39.218Z,15.45
2023-01-31T15:52:13.165Z,17.17
2023-01-31T15:54:51.708Z,12.10
2023-01-31T15:57:20.507Z,12.07
2023-01-31T15:59:48.315Z,41.55
2023-01-31T16:02:22.359Z,19.17
2023-01-31T16:07:19.715Z,13.90
2023-01-31T16:09:47.928Z,16.27
2023-01-31T16:12:16.612Z,11.23
2023-01-31T16:14:47.905Z,11.30
2023-01-31T16:17:15.928Z,10.30
2023-01-31T16:19:49.249Z,25.48
2023-01-31T16:22:28.149Z,13.57
2023-01-31T16:24:57.712Z,11.52
2023-01-31T16:27:27.518Z,12.25
2023-01-31T16:29:59.003Z,12.88
2023-01-31T16:32:29.361Z,12.82
2023-01-31T16:34:58.634Z,12.15
2023-01-31T16:37:32.130Z,13.40
2023-01-31T16:40:04.440Z,12.52
2023-01-31T16:42:32.417Z,12.20
2023-01-31T16:44:59.923Z,12.50
2023-01-31T16:47:46.600Z,11.07
2023-01-31T16:50:43.205Z,9.90
2023-01-31T16:53:19.142Z,11.23
2023-01-31T16:55:46.392Z,14.32
2023-01-31T16:58:43.819Z,9.98
2023-01-31T17:01:12.956Z,12.10
2023-01-31T17:03:40.446Z,10.23
2023-01-31T17:06:08.202Z,13.57
2023-01-31T17:08:42.285Z,12.57
2023-01-31T17:13:43.518Z,10.45
2023-01-31T17:16:14.629Z,11.43
2023-01-31T17:18:42.053Z,7.97
2023-01-31T17:21:10.433Z,11.80
2023-01-31T17:23:39.056Z,9.55
2023-01-31T17:26:08.677Z,11.40
2023-01-31T17:28:35.815Z,8.02
2023-01-31T17:31:03.174Z,7.90
2023-01-31T17:33:30.468Z,7.55
2023-01-31T17:35:57.583Z,7.13
2023-01-31T17:38:24.749Z,10.05
2023-01-31T17:40:53.306Z,8.45
2023-01-31T17:43:21.946Z,9.55
2023-01-31T17:45:49.148Z,9.43
2023-01-31T17:48:25.721Z,6.95
2023-01-31T17:50:53.891Z,8.70
2023-01-31T17:53:21.000Z,8.73
2023-01-31T17:55:48.249Z,8.65
2023-01-31T17:58:16.995Z,7.13
2023-01-31T18:00:44.165Z,10.50
2023-01-31T18:03:16.316Z,8.75
2023-01-31T18:05:44.180Z,8.57
2023-01-31T18:08:12.316Z,7.63
2023-01-31T18:10:39.665Z,6.45
2023-01-31T18:13:07.481Z,7.13
2023-01-31T18:15:36.540Z,7.57
2023-01-31T18:18:03.929Z,6.88
2023-01-31T18:20:31.041Z,8.02
2023-01-31T18:22:58.137Z,6.20
2023-01-31T18:25:25.262Z,8.32
2023-01-31T18:27:52.369Z,6.50
2023-01-31T18:30:19.458Z,6.43
2023-01-31T18:32:47.919Z,7.38
2023-01-31T18:35:15.047Z,4.90
2023-01-31T18:37:42.141Z,8.60
2023-01-31T18:40:10.780Z,5.88
2023-01-31T18:42:38.177Z,7.03
2023-01-31T18:45:05.935Z,7.28
2023-01-31T18:47:33.050Z,6.90
2023-01-31T18:50:01.571Z,5.18
2023-01-31T18:52:28.656Z,7.82
2023-01-31T18:54:55.824Z,5.60
2023-01-31T18:57:22.940Z,6.07
2023-01-31T18:59:50.036Z,7.43
2023-01-31T19:02:17.210Z,6.20
2023-01-31T19:04:44.459Z,7.38
2023-01-31T19:07:12.934Z,6.68
2023-01-31T19:09:40.013Z,5.85
2023-01-31T19:12:07.234Z,6.85
2023-01-31T19:14:34.313Z,7.03
2023-01-31T19:17:01.430Z,6.78
2023-01-31T19:19:28.588Z,7.00
2023-01-31T19:21:55.701Z,7.00
2023-01-31T19:24:24.225Z,7.25
2023-01-31T19:26:51.402Z,5.70
2023-01-31T19:29:18.747Z,6.22
2023-01-31T19:31:45.928Z,5.53
2023-01-31T19:34:13.172Z,6.40
2023-01-31T19:36:41.196Z,5.78
2023-01-31T19:39:11.193Z,6.90
2023-01-31T19:41:39.850Z,5.78
2023-01-31T19:44:06.958Z,4.38
2023-01-31T19:46:35.577Z,5.78
2023-01-31T19:49:03.865Z,4.97
2023-01-31T19:51:31.746Z,6.53
2023-01-31T19:54:00.428Z,5.20
2023-01-31T19:56:28.274Z,4.57
2023-01-31T19:58:56.986Z,4.53
2023-01-31T20:01:24.673Z,4.80
2023-01-31T20:03:53.826Z,5.68
2023-01-31T20:06:22.965Z,4.90
2023-01-31T20:08:50.965Z,4.45
2023-01-31T20:11:18.243Z,4.05
2023-01-31T20:13:45.356Z,5.45
2023-01-31T20:16:14.041Z,6.03
2023-01-31T20:18:41.736Z,5.43
2023-01-31T20:21:12.891Z,4.13
2023-01-31T20:23:40.028Z,4.53
2023-01-31T20:26:07.492Z,4.30
2023-01-31T20:28:34.757Z,5.53
2023-01-31T20:31:05.858Z,7.03
2023-01-31T20:33:35.180Z,10.00
2023-01-31T20:36:02.367Z,4.82
2023-01-31T20:38:29.524Z,4.50
2023-01-31T20:40:56.770Z,6.35
2023-01-31T20:43:25.617Z,5.07
2023-01-31T20:45:52.814Z,5.30
2023-01-31T20:48:20.089Z,4.30
2023-01-31T20:50:55.873Z,4.40
2023-01-31T20:53:23.924Z,5.57
2023-01-31T20:55:55.243Z,4.57
2023-01-31T20:58:22.985Z,4.15
2023-01-31T21:00:52.287Z,4.55
2023-01-31T21:03:19.393Z,3.75
2023-01-31T21:05:46.515Z,4.43
2023-01-31T21:08:14.970Z,4.25
2023-01-31T21:10:42.285Z,4.60
2023-01-31T21:13:09.386Z,4.68
2023-01-31T21:15:36.528Z,4.15
2023-01-31T21:18:03.922Z,4.88
2023-01-31T21:20:31.084Z,6.15
2023-01-31T21:22:58.326Z,4.68
2023-01-31T21:25:26.794Z,4.28
2023-01-31T21:27:53.887Z,4.28
2023-01-31T21:30:21.655Z,3.50
2023-01-31T21:32:49.080Z,3.00
2023-01-31T21:35:16.395Z,3.40
2023-01-31T21:37:43.544Z,3.78
2023-01-31T21:40:11.903Z,4.20
2023-01-31T21:42:42.788Z,5.70
2023-01-31T21:45:11.040Z,3.65
2023-01-31T21:47:38.128Z,4.93
2023-01-31T21:50:06.245Z,5.03
2023-01-31T21:52:33.502Z,4.60
2023-01-31T21:55:00.615Z,3.58
2023-01-31T21:57:27.713Z,4.75
2023-01-31T21:59:56.186Z,3.97
2023-01-31T22:02:23.313Z,2.92
2023-01-31T22:04:50.438Z,3.92
2023-01-31T22:07:17.652Z,3.40
2023-01-31T22:09:44.736Z,6.13
2023-01-31T22:12:11.836Z,3.70
2023-01-31T22:14:38.936Z,5.30
2023-01-31T22:17:07.361Z,4.00
2023-01-31T22:19:34.479Z,7.75
2023-01-31T22:22:01.583Z,3.40
2023-01-31T22:24:28.903Z,5.30
2023-01-31T22:26:55.996Z,3.08
2023-01-31T22:29:23.131Z,3.00
2023-01-31T22:31:50.368Z,2.95
2023-01-31T22:34:18.976Z,3.42
2023-01-31T22:36:46.084Z,3.78
2023-01-31T22:39:13.501Z,2.90
2023-01-31T22:41:40.612Z,4.68
2023-01-31T22:44:07.724Z,2.85
2023-01-31T22:46:34.861Z,3.45
2023-01-31T22:49:02.028Z,3.83
2023-01-31T22:51:30.531Z,5.13
2023-01-31T22:53:58.476Z,3.22
2023-01-31T22:56:27.497Z,2.58
2023-01-31T22:58:56.200Z,3.15
2023-01-31T23:01:25.295Z,5.00
2023-01-31T23:03:56.415Z,3.00
2023-01-31T23:06:23.888Z,2.80
2023-01-31T23:08:52.626Z,2.60
2023-01-31T23:11:20.575Z,2.70
2023-01-31T23:13:47.905Z,3.45
2023-01-31T23:16:17.678Z,4.22
2023-01-31T23:18:45.420Z,3.05
2023-01-31T23:21:14.783Z,3.22
2023-01-31T23:23:42.006Z,3.45
2023-01-31T23:26:10.887Z,3.38
2023-01-31T23:28:38.426Z,2.95
2023-01-31T23:31:06.843Z,3.28
2023-01-31T23:33:34.109Z,3.13
2023-01-31T23:36:01.259Z,2.67
2023-01-31T23:38:28.350Z,2.92
2023-01-31T23:40:55.607Z,2.65
2023-01-31T23:43:24.115Z,3.28
2023-01-31T23:45:51.236Z,2.83
2023-01-31T23:48:18.498Z,2.45
2023-01-31T23:50:45.597Z,2.97
2023-01-31T23:53:12.702Z,3.25
2023-01-31T23:55:39.810Z,2.08
2023-01-31T23:58:06.974Z,3.35
